createdAt,value
2018-01-12T00:01:47.749Z,34.03
2018-01-12T00:04:15.364Z,38.93
2018-01-12T00:06:44.462Z,37.03
2018-01-12T00:09:15.737Z,34.47
2018-01-12T00:11:43.402Z,37.07
2018-01-12T00:14:10.963Z,36.20
2018-01-12T00:16:39.063Z,33.20
2018-01-12T00:19:06.644Z,36.03
2018-01-12T00:21:34.262Z,32.53
2018-01-12T00:24:02.020Z,40.73
2018-01-12T00:26:29.658Z,39.10
2018-01-12T00:28:58.008Z,40.43
2018-01-12T00:31:26.792Z,36.40
2018-01-12T00:33:54.353Z,38.57
2018-01-12T00:36:22.640Z,39.37
2018-01-12T00:38:51.160Z,39.13
2018-01-12T00:41:18.894Z,40.93
2018-01-12T00:43:47.231Z,38.63
2018-01-12T00:46:14.859Z,38.00
2018-01-12T00:48:42.487Z,31.70
2018-01-12T00:51:10.137Z,32.83
2018-01-12T00:53:37.732Z,35.47
2018-01-12T00:56:05.295Z,37.87
2018-01-12T00:58:33.865Z,33.33
2018-01-12T01:01:01.508Z,37.57
2018-01-12T01:03:30.159Z,37.93
2018-01-12T01:05:57.726Z,33.00
2018-01-12T01:08:25.312Z,32.70
2018-01-12T01:10:53.773Z,37.77
2018-01-12T01:13:21.360Z,39.10
2018-01-12T01:15:48.896Z,33.70
2018-01-12T01:18:16.465Z,35.50
2018-01-12T01:20:44.045Z,36.80
2018-01-12T01:23:12.369Z,33.17
2018-01-12T01:25:40.027Z,33.50
2018-01-12T01:28:07.603Z,36.00
2018-01-12T01:30:35.180Z,32.63
2018-01-12T01:33:02.766Z,35.27
2018-01-12T01:35:31.086Z,37.00
2018-01-12T01:37:58.658Z,31.50
2018-01-12T01:40:26.211Z,41.43
2018-01-12T01:42:53.799Z,34.80
2018-01-12T01:45:21.370Z,32.77
2018-01-12T01:47:48.937Z,36.40
2018-01-12T01:50:17.378Z,34.53
2018-01-12T01:52:44.954Z,34.83
2018-01-12T01:55:12.551Z,35.73
2018-01-12T01:57:40.092Z,35.13
2018-01-12T02:00:07.634Z,33.43
2018-01-12T02:02:35.190Z,32.80
2018-01-12T02:05:02.771Z,32.07
2018-01-12T02:07:30.351Z,33.03
2018-01-12T02:09:57.944Z,33.47
2018-01-12T02:12:25.538Z,39.37
2018-01-12T02:14:53.096Z,37.40
2018-01-12T02:17:20.655Z,30.97
2018-01-12T02:19:48.251Z,33.97
2018-01-12T02:22:16.835Z,31.73
2018-01-12T02:24:45.151Z,35.63
2018-01-12T02:27:12.673Z,30.60
2018-01-12T02:29:40.995Z,28.03
2018-01-12T02:32:08.513Z,30.77
2018-01-12T02:34:36.075Z,32.20
2018-01-12T02:37:03.699Z,33.87
2018-01-12T02:39:31.275Z,36.33
2018-01-12T02:41:58.836Z,32.20
2018-01-12T02:44:27.191Z,27.03
2018-01-12T02:46:54.736Z,33.10
2018-01-12T02:49:22.285Z,32.07
2018-01-12T02:51:49.885Z,30.10
2018-01-12T02:54:17.395Z,30.80
2018-01-12T02:56:45.043Z,33.67
2018-01-12T02:59:12.574Z,33.67
2018-01-12T03:01:40.893Z,32.33
2018-01-12T03:04:08.490Z,31.40
2018-01-12T03:06:36.061Z,31.47
2018-01-12T03:09:03.746Z,33.37
2018-01-12T03:11:32.054Z,31.07
2018-01-12T03:13:59.650Z,33.20
2018-01-12T03:16:27.275Z,32.40
2018-01-12T03:18:54.836Z,30.10
2018-01-12T03:21:22.392Z,34.87
2018-01-12T03:23:49.954Z,35.50
2018-01-12T03:26:17.496Z,29.77
2018-01-12T03:28:45.025Z,37.33
2018-01-12T03:31:12.607Z,40.37
2018-01-12T03:33:40.927Z,30.83
2018-01-12T03:36:08.472Z,31.50
2018-01-12T03:38:36.050Z,31.57
2018-01-12T03:41:03.583Z,32.63
2018-01-12T03:43:31.172Z,38.43
2018-01-12T03:45:58.707Z,33.20
2018-01-12T03:48:26.239Z,32.70
2018-01-12T03:50:54.560Z,39.23
2018-01-12T03:53:22.134Z,34.50
2018-01-12T03:55:49.652Z,38.03
2018-01-12T03:58:17.237Z,36.83
2018-01-12T04:00:44.787Z,37.33
2018-01-12T04:03:12.361Z,38.97
2018-01-12T04:05:39.898Z,39.83
2018-01-12T04:08:07.504Z,40.03
2018-01-12T04:10:35.079Z,40.30
2018-01-12T04:13:02.631Z,38.70
2018-01-12T04:15:30.247Z,39.77
2018-01-12T04:17:57.765Z,37.30
2018-01-12T04:20:26.079Z,37.40
2018-01-12T04:22:53.653Z,39.10
2018-01-12T04:25:21.238Z,36.97
2018-01-12T04:27:48.779Z,36.53
2018-01-12T04:30:16.434Z,37.10
2018-01-12T04:32:43.964Z,35.87
2018-01-12T04:35:11.505Z,40.07
2018-01-12T04:37:39.109Z,40.80
2018-01-12T04:40:06.700Z,42.67
2018-01-12T04:42:34.275Z,38.70
2018-01-12T04:45:02.694Z,44.97
2018-01-12T04:47:30.309Z,36.37
2018-01-12T04:49:57.904Z,35.30
2018-01-12T04:52:25.431Z,38.30
2018-01-12T04:54:52.984Z,35.40
2018-01-12T04:57:20.766Z,33.13
2018-01-12T04:59:48.351Z,31.90
2018-01-12T05:02:15.898Z,29.93
2018-01-12T05:04:44.219Z,34.57
2018-01-12T05:07:11.769Z,33.80
2018-01-12T05:09:39.431Z,30.50
2018-01-12T05:12:06.956Z,28.33
2018-01-12T05:14:35.276Z,31.20
2018-01-12T05:17:02.878Z,30.73
2018-01-12T05:19:30.488Z,35.23
2018-01-12T05:21:58.065Z,27.90
2018-01-12T05:24:25.659Z,27.63
2018-01-12T05:26:53.217Z,28.97
2018-01-12T05:29:20.801Z,30.27
2018-01-12T05:31:48.356Z,34.20
2018-01-12T05:34:15.959Z,29.70
2018-01-12T05:36:43.534Z,32.40
2018-01-12T05:39:11.082Z,31.90
2018-01-12T05:41:38.710Z,30.97
2018-01-12T05:44:06.269Z,31.63
2018-01-12T05:46:33.811Z,37.97
2018-01-12T05:49:02.409Z,29.60
2018-01-12T05:51:29.967Z,38.40
2018-01-12T05:53:57.583Z,38.17
2018-01-12T05:56:25.151Z,37.73
2018-01-12T05:58:52.710Z,33.77
2018-01-12T06:01:32.017Z,37.03
2018-01-12T06:07:07.495Z,34.53
2018-01-12T06:09:35.055Z,36.80
2018-01-12T06:12:02.700Z,32.83
2018-01-12T06:14:30.267Z,35.60
2018-01-12T06:16:57.844Z,35.80
2018-01-12T06:19:25.434Z,37.87
2018-01-12T06:21:53.744Z,34.07
2018-01-12T06:24:21.392Z,34.27
2018-01-12T06:26:48.937Z,35.73
2018-01-12T06:29:16.490Z,38.57
2018-01-12T06:31:44.086Z,32.43
2018-01-12T06:34:11.699Z,33.93
2018-01-12T06:36:39.376Z,36.27
2018-01-12T06:39:06.954Z,34.70
2018-01-12T06:41:35.240Z,33.80
2018-01-12T06:44:02.872Z,41.60
2018-01-12T06:46:30.430Z,40.80
2018-01-12T06:48:58.361Z,39.87
2018-01-12T06:51:26.706Z,34.40
2018-01-12T06:53:54.292Z,36.67
2018-01-12T06:56:21.886Z,38.43
2018-01-12T06:58:49.459Z,35.73
2018-01-12T07:01:17.070Z,34.03
2018-01-12T07:03:44.668Z,38.70
2018-01-12T07:06:12.245Z,39.67
2018-01-12T07:08:39.818Z,46.33
2018-01-12T07:11:07.364Z,37.97
2018-01-12T07:13:34.922Z,40.50
2018-01-12T07:16:02.494Z,40.57
2018-01-12T07:18:30.837Z,40.00
2018-01-12T07:21:10.156Z,38.97
2018-01-12T07:23:45.492Z,47.97
2018-01-12T07:26:13.050Z,36.03
2018-01-12T07:28:40.664Z,39.73
2018-01-12T07:31:09.051Z,35.87
2018-01-12T07:33:37.469Z,37.43
2018-01-12T07:36:05.384Z,41.67
2018-01-12T07:38:32.968Z,45.10
2018-01-12T07:41:01.314Z,42.97
2018-01-12T07:43:28.891Z,41.50
2018-01-12T07:45:57.630Z,39.20
2018-01-12T07:48:25.205Z,44.67
2018-01-12T07:50:53.564Z,38.30
2018-01-12T07:53:21.207Z,36.90
2018-01-12T07:55:48.776Z,41.67
2018-01-12T07:58:16.368Z,38.73
2018-01-12T08:00:49.456Z,35.30
2018-01-12T08:03:17.032Z,49.73
2018-01-12T08:05:44.614Z,43.10
2018-01-12T08:08:12.945Z,39.33
2018-01-12T08:10:40.542Z,42.30
2018-01-12T08:13:08.179Z,40.13
2018-01-12T08:15:35.776Z,42.97
2018-01-12T08:18:03.314Z,34.60
2018-01-12T08:20:30.883Z,36.83
2018-01-12T08:22:58.434Z,40.33
2018-01-12T08:25:26.064Z,38.23
2018-01-12T08:27:53.617Z,43.33
2018-01-12T08:30:21.180Z,38.43
2018-01-12T08:32:48.805Z,42.00
2018-01-12T08:35:16.424Z,48.27
2018-01-12T08:37:44.787Z,44.23
2018-01-12T08:40:12.369Z,41.13
2018-01-12T08:42:39.964Z,41.73
2018-01-12T08:45:07.848Z,38.30
2018-01-12T08:47:35.451Z,38.60
2018-01-12T08:50:03.435Z,36.93
2018-01-12T08:52:31.071Z,39.70
2018-01-12T08:54:58.811Z,33.93
2018-01-12T08:57:26.485Z,37.63
2018-01-12T08:59:54.148Z,35.93
2018-01-12T09:02:21.933Z,44.70
2018-01-12T09:04:49.524Z,44.87
2018-01-12T09:07:17.855Z,36.20
2018-01-12T09:09:45.416Z,38.77
2018-01-12T09:12:12.953Z,45.10
2018-01-12T09:14:56.473Z,42.53
2018-01-12T09:17:45.788Z,38.50
2018-01-12T09:20:18.146Z,38.80
2018-01-12T09:22:49.406Z,35.90
2018-01-12T09:25:26.634Z,34.10
2018-01-12T09:27:55.036Z,31.00
2018-01-12T09:30:22.683Z,42.70
2018-01-12T09:32:50.977Z,39.63
2018-01-12T09:35:18.563Z,32.77
2018-01-12T09:37:46.218Z,39.40
2018-01-12T09:43:11.292Z,39.57
2018-01-12T09:45:39.639Z,36.43
2018-01-12T09:48:19.111Z,40.77
2018-01-12T09:50:47.598Z,42.03
2018-01-12T09:53:18.521Z,41.67
2018-01-12T09:55:47.886Z,42.97
2018-01-12T09:58:17.289Z,40.10
2018-01-12T10:01:03.299Z,38.30
2018-01-12T10:03:30.900Z,40.57
2018-01-12T10:06:03.019Z,40.53
2018-01-12T10:08:30.634Z,40.50
2018-01-12T10:10:58.457Z,36.37
2018-01-12T10:13:26.363Z,37.93
2018-01-12T10:15:55.275Z,35.57
2018-01-12T10:18:44.858Z,37.80
2018-01-12T10:21:24.410Z,42.43
2018-01-12T10:23:52.556Z,41.80
2018-01-12T10:26:20.090Z,40.40
2018-01-12T10:28:59.394Z,42.13
2018-01-12T10:31:38.669Z,41.93
2018-01-12T10:34:08.200Z,49.37
2018-01-12T10:36:39.370Z,42.83
2018-01-12T10:39:18.862Z,45.33
2018-01-12T10:41:58.323Z,42.10
2018-01-12T10:44:27.298Z,49.70
2018-01-12T10:50:17.982Z,45.47
2018-01-12T10:52:48.347Z,48.80
2018-01-12T10:55:16.212Z,47.70
2018-01-12T10:57:44.544Z,50.53
2018-01-12T11:00:23.939Z,42.47
2018-01-12T11:02:51.497Z,45.77
2018-01-12T11:05:19.096Z,48.37
2018-01-12T11:07:46.678Z,48.30
2018-01-12T11:10:14.242Z,50.07
2018-01-12T11:12:41.846Z,45.50
2018-01-12T11:15:09.824Z,44.10
2018-01-12T11:17:37.397Z,44.17
2018-01-12T11:20:05.830Z,44.97
2018-01-12T11:22:33.466Z,45.07
2018-01-12T11:25:01.104Z,42.30
2018-01-12T11:27:28.683Z,46.23
2018-01-12T11:29:56.249Z,49.70
2018-01-12T11:32:23.792Z,48.10
2018-01-12T11:34:51.382Z,45.40
2018-01-12T11:37:18.970Z,47.67
2018-01-12T11:39:46.560Z,51.23
2018-01-12T11:42:15.183Z,50.70
2018-01-12T11:44:42.711Z,47.97
2018-01-12T11:47:10.339Z,44.23
2018-01-12T11:49:38.027Z,47.37
2018-01-12T11:52:05.631Z,45.60
2018-01-12T11:54:33.236Z,42.90
2018-01-12T11:57:00.829Z,47.47
2018-01-12T11:59:28.392Z,41.73
2018-01-12T12:01:55.952Z,44.93
2018-01-12T12:04:23.524Z,41.23
2018-01-12T12:06:51.078Z,46.27
2018-01-12T12:09:18.659Z,48.33
2018-01-12T12:11:46.955Z,52.63
2018-01-12T12:14:14.980Z,42.33
2018-01-12T12:16:42.525Z,48.87
2018-01-12T12:19:10.107Z,43.90
2018-01-12T12:21:37.686Z,43.87
2018-01-12T12:24:05.241Z,46.47
2018-01-12T12:26:33.317Z,49.40
2018-01-12T12:29:00.867Z,50.90
2018-01-12T12:31:28.444Z,49.33
2018-01-12T12:33:57.293Z,55.27
2018-01-12T12:36:24.878Z,52.67
2018-01-12T12:38:53.221Z,47.30
2018-01-12T12:41:20.798Z,48.87
2018-01-12T12:43:48.368Z,47.87
2018-01-12T12:46:15.899Z,51.70
2018-01-12T12:48:43.485Z,52.90
2018-01-12T12:51:11.065Z,52.13
2018-01-12T12:53:39.370Z,53.43
2018-01-12T12:56:06.951Z,43.63
2018-01-12T12:58:35.118Z,48.33
2018-01-12T13:01:02.901Z,51.73
2018-01-12T13:03:31.022Z,51.60
2018-01-12T13:06:00.580Z,52.50
2018-01-12T13:08:28.171Z,44.17
2018-01-12T13:10:59.450Z,43.90
2018-01-12T13:13:28.076Z,40.63
2018-01-12T13:15:57.477Z,43.10
2018-01-12T13:18:30.314Z,40.30
2018-01-12T13:21:01.176Z,40.20
2018-01-12T13:23:32.807Z,46.20
2018-01-12T13:26:04.782Z,41.10
2018-01-12T13:28:34.269Z,41.83
2018-01-12T13:40:48.710Z,48.17
2018-01-12T13:43:16.340Z,44.73
2018-01-12T13:45:44.467Z,40.27
2018-01-12T13:48:14.903Z,47.03
2018-01-12T13:50:43.769Z,42.47
2018-01-12T13:53:12.939Z,44.47
2018-01-12T14:08:35.558Z,39.37
2018-01-12T14:11:04.130Z,48.47
2018-01-12T14:13:32.491Z,40.60
2018-01-12T14:16:00.184Z,39.10
2018-01-12T14:18:28.408Z,49.87
2018-01-12T14:20:55.973Z,38.43
2018-01-12T14:23:23.568Z,45.73
2018-01-12T14:25:51.165Z,43.00
2018-01-12T14:28:18.776Z,43.93
2018-01-12T14:30:47.031Z,40.03
2018-01-12T14:33:14.683Z,45.20
2018-01-12T14:38:45.551Z,49.30
2018-01-12T14:41:13.362Z,43.60
2018-01-12T14:43:43.546Z,45.30
2018-01-12T14:46:11.151Z,43.60
2018-01-12T14:48:38.994Z,43.60
2018-01-12T14:51:07.406Z,45.57
2018-01-12T14:53:35.115Z,44.30
2018-01-12T14:56:02.726Z,49.37
2018-01-12T14:58:30.490Z,41.93
2018-01-12T15:00:58.164Z,44.70
2018-01-12T15:03:25.764Z,47.90
2018-01-12T15:05:53.317Z,44.93
2018-01-12T15:08:21.131Z,48.63
2018-01-12T15:10:50.058Z,47.80
2018-01-12T15:13:17.612Z,47.73
2018-01-12T15:15:45.162Z,51.23
2018-01-12T15:18:13.600Z,45.03
2018-01-12T15:20:42.024Z,45.80
2018-01-12T15:23:09.606Z,47.57
2018-01-12T15:25:37.198Z,48.10
2018-01-12T15:28:04.787Z,46.60
2018-01-12T15:30:35.758Z,51.03
2018-01-12T15:33:04.109Z,50.17
2018-01-12T15:35:31.759Z,50.20
2018-01-12T15:37:59.296Z,48.53
2018-01-12T15:40:32.006Z,54.20
2018-01-12T15:43:02.191Z,58.60
2018-01-12T15:45:31.354Z,60.10
2018-01-12T15:47:59.056Z,56.40
2018-01-12T15:50:26.615Z,61.43
2018-01-12T15:52:54.235Z,58.47
2018-01-12T15:55:22.030Z,54.40
2018-01-12T15:57:50.441Z,52.83
2018-01-12T16:00:18.203Z,70.30
2018-01-12T16:02:46.515Z,76.03
2018-01-12T16:05:15.862Z,65.47
2018-01-12T16:07:43.439Z,63.63
2018-01-12T16:10:11.152Z,78.23
2018-01-12T16:12:38.788Z,76.63
2018-01-12T16:15:06.466Z,71.67
2018-01-12T16:17:35.688Z,72.33
2018-01-12T16:20:03.389Z,61.57
2018-01-12T16:22:30.938Z,73.67
2018-01-12T16:24:58.579Z,81.03
2018-01-12T16:27:26.271Z,79.77
2018-01-12T16:29:53.901Z,79.57
2018-01-12T16:32:21.450Z,76.10
2018-01-12T16:34:49.053Z,79.23
2018-01-12T16:37:16.645Z,80.57
2018-01-12T16:39:45.063Z,75.93
2018-01-12T16:42:12.619Z,71.23
2018-01-12T16:44:40.178Z,73.23
2018-01-12T16:47:07.929Z,73.17
2018-01-12T16:49:37.078Z,70.33
2018-01-12T16:52:04.808Z,72.43
2018-01-12T16:54:32.392Z,75.90
2018-01-12T16:57:03.850Z,80.57
2018-01-12T16:59:33.027Z,72.03
2018-01-12T17:02:00.611Z,69.00
2018-01-12T17:04:28.295Z,73.53
2018-01-12T17:06:56.488Z,68.40
2018-01-12T17:09:24.111Z,75.77
2018-01-12T17:11:51.839Z,66.57
2018-01-12T17:14:19.453Z,77.23
2018-01-12T17:16:46.994Z,77.70
2018-01-12T17:19:14.980Z,76.53
2018-01-12T17:21:42.558Z,71.33
2018-01-12T17:24:10.116Z,81.27
2018-01-12T17:26:38.464Z,72.80
2018-01-12T17:29:06.163Z,66.63
2018-01-12T17:31:35.576Z,79.93
2018-01-12T17:34:05.001Z,70.27
2018-01-12T17:36:34.833Z,78.33
2018-01-12T17:39:04.874Z,66.57
2018-01-12T17:41:36.380Z,73.97
2018-01-12T17:44:04.034Z,77.03
2018-01-12T17:46:33.546Z,67.30
2018-01-12T17:49:03.621Z,75.87
2018-01-12T17:51:31.824Z,66.00
2018-01-12T17:54:02.005Z,63.77
2018-01-12T17:56:32.140Z,79.23
2018-01-12T17:59:01.714Z,74.53
2018-01-12T18:01:30.089Z,75.47
2018-01-12T18:03:59.946Z,73.83
2018-01-12T18:06:29.615Z,68.93
2018-01-12T18:08:58.772Z,78.90
2018-01-12T18:24:24.394Z,71.20
2018-01-12T18:26:52.725Z,78.30
2018-01-12T18:29:22.032Z,90.00
2018-01-12T18:31:51.251Z,79.73
2018-01-12T18:34:20.871Z,80.30
2018-01-12T18:36:52.225Z,80.60
2018-01-12T18:39:20.102Z,68.27
2018-01-12T18:41:48.539Z,67.47
2018-01-12T18:44:17.786Z,72.70
2018-01-12T18:46:46.133Z,69.80
2018-01-12T18:49:14.492Z,67.70
2018-01-12T18:51:42.848Z,73.60
2018-01-12T18:54:11.397Z,71.27
2018-01-12T18:56:40.438Z,78.47
2018-01-12T18:59:11.320Z,77.40
2018-01-12T19:01:39.117Z,65.93
2018-01-12T19:04:06.755Z,63.97
2018-01-12T19:06:34.298Z,75.87
2018-01-12T19:09:01.857Z,72.53
2018-01-12T19:11:29.752Z,68.27
2018-01-12T19:13:57.289Z,79.23
2018-01-12T19:16:24.910Z,74.63
2018-01-12T19:18:52.585Z,74.90
2018-01-12T19:21:20.284Z,75.03
2018-01-12T19:23:47.868Z,79.77
2018-01-12T19:26:15.830Z,81.93
2018-01-12T19:28:43.337Z,68.23
2018-01-12T19:31:11.758Z,76.60
2018-01-12T19:33:39.326Z,83.93
2018-01-12T19:36:06.905Z,84.13
2018-01-12T19:38:34.475Z,75.40
2018-01-12T19:41:03.434Z,77.77
2018-01-12T19:43:31.020Z,67.90
2018-01-12T19:45:58.576Z,68.53
2018-01-12T19:48:26.621Z,77.50
2018-01-12T19:50:54.329Z,70.60
2018-01-12T19:53:21.858Z,75.00
2018-01-12T19:55:49.396Z,67.93
2018-01-12T19:58:17.175Z,73.23
2018-01-12T20:13:40.560Z,83.17
2018-01-12T20:16:08.148Z,77.77
2018-01-12T20:18:35.732Z,78.60
2018-01-12T20:21:03.806Z,72.33
2018-01-12T20:23:31.473Z,75.37
2018-01-12T20:25:59.640Z,66.63
2018-01-12T20:28:27.363Z,64.57
2018-01-12T20:30:55.850Z,67.83
2018-01-12T20:33:24.676Z,62.30
2018-01-12T20:35:53.165Z,65.37
2018-01-12T20:38:21.639Z,70.87
2018-01-12T20:40:49.715Z,67.27
2018-01-12T20:43:18.295Z,69.70
2018-01-12T20:45:45.898Z,65.17
2018-01-12T20:48:13.451Z,64.60
2018-01-12T20:50:41.011Z,63.13
2018-01-12T20:53:08.640Z,57.90
2018-01-12T20:55:36.243Z,57.77
2018-01-12T20:58:04.988Z,60.57
2018-01-12T21:00:32.631Z,61.63
2018-01-12T21:03:00.282Z,56.43
2018-01-12T21:05:27.872Z,54.10
2018-01-12T21:07:56.298Z,59.63
2018-01-12T21:10:23.915Z,55.40
2018-01-12T21:12:51.446Z,61.57
2018-01-12T21:15:18.975Z,56.00
2018-01-12T21:17:46.579Z,59.67
2018-01-12T21:20:14.120Z,61.57
2018-01-12T21:22:41.663Z,64.80
2018-01-12T21:25:09.817Z,57.27
2018-01-12T21:27:37.366Z,57.47
2018-01-12T21:30:05.814Z,56.10
2018-01-12T21:32:33.997Z,67.17
2018-01-12T21:35:01.595Z,56.63
2018-01-12T21:37:29.169Z,56.97
2018-01-12T21:39:56.734Z,64.10
2018-01-12T21:42:24.318Z,57.90
2018-01-12T21:44:51.923Z,56.60
2018-01-12T21:47:19.994Z,51.13
2018-01-12T21:49:48.584Z,62.20
2018-01-12T21:52:16.143Z,60.73
2018-01-12T21:54:43.774Z,63.33
2018-01-12T21:57:11.353Z,58.97
2018-01-12T21:59:38.949Z,61.07
2018-01-12T22:02:06.600Z,62.27
2018-01-12T22:04:34.123Z,55.73
2018-01-12T22:07:01.813Z,56.83
2018-01-12T22:09:29.389Z,60.30
2018-01-12T22:11:56.954Z,68.80
2018-01-12T22:14:24.581Z,62.23
2018-01-12T22:16:52.186Z,62.37
2018-01-12T22:19:19.838Z,61.47
2018-01-12T22:21:47.392Z,56.53
2018-01-12T22:24:14.923Z,67.43
2018-01-12T22:26:43.031Z,60.00
2018-01-12T22:29:11.344Z,67.00
2018-01-12T22:31:38.918Z,57.00
2018-01-12T22:34:06.850Z,63.80
2018-01-12T22:36:35.234Z,63.27
2018-01-12T22:39:02.866Z,58.43
2018-01-12T22:41:30.408Z,55.23
2018-01-12T22:43:59.119Z,63.67
2018-01-12T22:46:27.136Z,60.90
2018-01-12T22:48:54.825Z,60.77
2018-01-12T22:51:22.436Z,60.50
2018-01-12T22:53:49.994Z,66.50
2018-01-12T22:56:18.382Z,64.80
2018-01-12T22:58:45.952Z,56.77
2018-01-12T23:01:13.544Z,73.00
2018-01-12T23:03:41.130Z,63.13
2018-01-12T23:06:09.169Z,59.57
2018-01-12T23:08:36.734Z,67.70
2018-01-12T23:11:04.328Z,66.80
2018-01-12T23:13:32.665Z,68.40
2018-01-12T23:16:00.437Z,73.63
2018-01-12T23:18:28.006Z,62.37
2018-01-12T23:20:55.694Z,67.10
2018-01-12T23:23:23.254Z,67.53
2018-01-12T23:25:51.622Z,76.93
2018-01-12T23:28:19.518Z,67.00
2018-01-12T23:30:47.084Z,69.17
2018-01-12T23:33:15.462Z,67.00
2018-01-12T23:35:43.808Z,68.33
2018-01-12T23:38:12.167Z,64.53
2018-01-12T23:40:39.743Z,57.67
2018-01-12T23:43:07.262Z,70.70
2018-01-12T23:45:34.834Z,60.83
2018-01-12T23:48:02.401Z,64.83
2018-01-12T23:50:30.075Z,66.60
2018-01-12T23:52:57.676Z,62.43
2018-01-12T23:55:25.218Z,62.30
2018-01-12T23:57:52.805Z,67.63
